Time;durP1;ratioP1;P1;durP2;ratioP2;P2;SDS_P1;SDS_P2;PMS_P1;PMS_P2;Temp;Humidity;BMP_temperature;BMP_pressure;BME280_temperature;BME280_humidity;BME280_pressure;Samples;Min_cycle;Max_cycle;Signal;HPM_P1;HPM_P2
2022/07/02 00:00:53;;;;;;;6.53;2.15;;;11.10;99.90;;;;;;4974894;28;20086;-73
2022/07/02 00:03:24;;;;;;;5.65;1.60;;;11.00;99.90;;;;;;4974601;28;20031;-73
2022/07/02 00:05:56;;;;;;;5.72;2.00;;;11.00;99.90;;;;;;4964907;28;20027;-73
2022/07/02 00:08:24;;;;;;;4.72;1.90;;;10.90;99.90;;;;;;4955359;28;20479;-73
2022/07/02 00:10:51;;;;;;;8.02;3.22;;;10.90;99.90;;;;;;4955473;28;20102;-73
2022/07/02 00:13:20;;;;;;;7.10;2.17;;;10.80;99.90;;;;;;4955266;28;20171;-73
2022/07/02 00:15:46;;;;;;;6.22;2.05;;;10.80;99.90;;;;;;4955292;29;20090;-73
2022/07/02 00:18:12;;;;;;;5.30;2.20;;;10.80;99.90;;;;;;4955121;28;20039;-73
2022/07/02 00:20:38;;;;;;;4.80;1.92;;;10.80;99.90;;;;;;4955275;28;20031;-73
2022/07/02 00:23:04;;;;;;;8.25;2.00;;;10.70;99.90;;;;;;4955083;28;20526;-73
2022/07/02 00:25:38;;;;;;;7.40;2.00;;;10.80;99.90;;;;;;4955075;28;20031;-73
2022/07/02 00:28:06;;;;;;;5.50;2.85;;;10.70;99.90;;;;;;4955087;28;20443;-73
2022/07/02 00:30:32;;;;;;;4.80;2.28;;;10.80;99.90;;;;;;4954946;28;20027;-73
2022/07/02 00:33:00;;;;;;;5.90;1.75;;;10.70;99.90;;;;;;4955276;28;20117;-73
2022/07/02 00:35:26;;;;;;;6.75;1.80;;;10.50;99.90;;;;;;4954876;28;20611;-73
2022/07/02 00:37:53;;;;;;;6.55;1.90;;;10.50;99.90;;;;;;4954544;28;20141;-73
2022/07/02 00:40:21;;;;;;;5.55;1.75;;;10.40;99.90;;;;;;4960677;28;20041;-74
2022/07/02 00:42:47;;;;;;;3.55;1.58;;;10.40;99.90;;;;;;4974176;28;20023;-73
2022/07/02 00:45:12;;;;;;;5.00;1.73;;;10.40;99.90;;;;;;4974046;28;20175;-73
2022/07/02 00:47:41;;;;;;;5.45;1.95;;;10.30;99.90;;;;;;4974097;28;20019;-73
2022/07/02 00:50:07;;;;;;;5.82;1.77;;;10.40;99.90;;;;;;4973941;28;20375;-73
2022/07/02 00:52:33;;;;;;;7.78;1.70;;;10.40;99.90;;;;;;4973902;28;20111;-73
2022/07/02 00:54:59;;;;;;;4.55;1.80;;;10.30;99.90;;;;;;4973896;28;20106;-73
2022/07/02 00:57:25;;;;;;;2.17;1.40;;;10.30;99.90;;;;;;4973908;28;20455;-73
2022/07/02 00:59:51;;;;;;;5.03;1.60;;;10.20;99.90;;;;;;4973707;28;20205;-73
2022/07/02 01:02:21;;;;;;;4.20;1.42;;;10.20;99.90;;;;;;4973804;28;20073;-73
2022/07/02 01:04:50;;;;;;;3.63;1.60;;;10.10;99.90;;;;;;4973772;28;20456;-73
2022/07/02 01:07:16;;;;;;;7.00;1.80;;;10.20;99.90;;;;;;4973731;28;20049;-73
2022/07/02 01:12:38;;;;;;;5.40;1.58;;;10.10;99.90;;;;;;4973820;28;20094;-73
2022/07/02 01:15:04;;;;;;;6.50;1.60;;;10.00;99.90;;;;;;4973412;28;20023;-73
2022/07/02 01:17:30;;;;;;;4.70;1.52;;;10.00;99.90;;;;;;4973704;28;20026;-73
2022/07/02 01:19:55;;;;;;;2.25;1.48;;;10.00;99.90;;;;;;4973475;28;20050;-73
2022/07/02 01:22:25;;;;;;;5.20;1.77;;;10.00;99.90;;;;;;4973625;28;20027;-73
2022/07/02 01:24:54;;;;;;;8.45;1.70;;;10.00;99.90;;;;;;4973541;28;20055;-73
2022/07/02 01:27:22;;;;;;;2.10;1.65;;;10.00;99.90;;;;;;4973304;28;20034;-73
2022/07/02 01:29:48;;;;;;;7.35;2.03;;;10.00;99.90;;;;;;4973494;28;20026;-73
2022/07/02 01:32:14;;;;;;;4.88;1.80;;;10.00;99.90;;;;;;4973293;28;20084;-73
2022/07/02 01:34:45;;;;;;;4.45;1.90;;;10.00;99.90;;;;;;4973508;28;20538;-73
2022/07/02 01:37:14;;;;;;;4.90;1.83;;;9.90;99.90;;;;;;4973337;28;20019;-73
2022/07/02 01:39:42;;;;;;;8.20;2.08;;;9.90;99.90;;;;;;4973149;28;20053;-73
2022/07/02 01:42:08;;;;;;;6.20;2.20;;;9.90;99.90;;;;;;4973419;28;20055;-73
2022/07/02 01:44:35;;;;;;;6.10;1.95;;;9.90;99.90;;;;;;4973361;28;20024;-73
2022/07/02 01:47:03;;;;;;;5.07;1.73;;;9.90;99.90;;;;;;4973341;28;20050;-73
2022/07/02 01:49:29;;;;;;;6.82;1.95;;;9.80;99.90;;;;;;4973276;28;20363;-73
2022/07/02 01:51:54;;;;;;;8.23;2.38;;;9.80;99.90;;;;;;4973347;28;20053;-73
2022/07/02 01:54:20;;;;;;;6.20;1.75;;;9.80;99.90;;;;;;4973040;28;20023;-73
2022/07/02 01:56:46;;;;;;;4.20;2.00;;;9.90;99.90;;;;;;4973258;28;20493;-73
2022/07/02 01:59:13;;;;;;;4.65;1.80;;;9.90;99.90;;;;;;4973140;28;20039;-73
2022/07/02 02:01:40;;;;;;;4.75;1.80;;;9.90;99.90;;;;;;4973439;28;20015;-73
2022/07/02 02:04:05;;;;;;;5.90;2.03;;;9.80;99.90;;;;;;4973283;28;20102;-73
2022/07/02 02:06:31;;;;;;;12.50;3.03;;;9.80;99.90;;;;;;4973073;28;20113;-73
2022/07/02 02:08:57;;;;;;;5.45;1.75;;;9.70;99.90;;;;;;4973212;28;20093;-73
2022/07/02 02:11:23;;;;;;;4.15;2.00;;;9.80;99.90;;;;;;4973095;28;20031;-73
2022/07/02 02:13:49;;;;;;;5.07;2.47;;;9.80;99.90;;;;;;4973122;28;20027;-73
2022/07/02 02:16:14;;;;;;;5.43;2.38;;;9.80;99.90;;;;;;4972884;28;20513;-73
2022/07/02 02:18:40;;;;;;;3.35;2.05;;;9.80;99.90;;;;;;4973111;28;20041;-73
2022/07/02 02:21:06;;;;;;;3.55;1.80;;;9.90;99.90;;;;;;4973103;28;20027;-73
2022/07/02 02:23:31;;;;;;;4.90;2.03;;;9.90;99.90;;;;;;4973167;28;20417;-73
2022/07/02 02:25:57;;;;;;;5.88;2.00;;;9.70;99.90;;;;;;4974446;28;20034;-73
2022/07/02 02:28:22;;;;;;;5.78;2.20;;;9.80;99.90;;;;;;4976684;28;20114;-72
2022/07/02 02:30:48;;;;;;;4.55;2.13;;;9.90;99.90;;;;;;4976517;28;20015;-73
2022/07/02 02:33:14;;;;;;;5.68;2.05;;;9.90;99.90;;;;;;4976569;28;20510;-73
2022/07/02 02:35:39;;;;;;;6.10;2.60;;;9.80;99.90;;;;;;4976328;28;20015;-73
2022/07/02 02:38:05;;;;;;;9.52;2.67;;;9.80;99.90;;;;;;4976116;28;20047;-73
2022/07/02 02:40:31;;;;;;;9.10;2.65;;;10.00;99.90;;;;;;4976273;28;20050;-73
2022/07/02 02:42:56;;;;;;;4.13;2.33;;;10.10;99.90;;;;;;4976411;28;20027;-73
2022/07/02 02:45:22;;;;;;;4.90;2.30;;;10.00;99.90;;;;;;4976155;28;20066;-73
2022/07/02 02:47:47;;;;;;;5.38;2.30;;;9.90;99.90;;;;;;4976160;28;20022;-73
2022/07/02 02:50:13;;;;;;;8.88;2.55;;;9.80;99.90;;;;;;4976184;28;20065;-73
2022/07/02 02:52:38;;;;;;;6.95;2.97;;;9.90;99.90;;;;;;4976178;28;20537;-73
2022/07/02 02:55:05;;;;;;;5.00;2.47;;;9.80;99.90;;;;;;4976051;28;20019;-73
2022/07/02 02:57:30;;;;;;;8.85;2.97;;;9.90;99.90;;;;;;4976216;28;20364;-73
2022/07/02 02:59:56;;;;;;;6.25;2.60;;;9.80;99.90;;;;;;4975985;28;20038;-73
2022/07/02 03:02:22;;;;;;;9.07;2.85;;;9.80;99.90;;;;;;4976008;28;20045;-73
2022/07/02 03:04:47;;;;;;;6.60;3.58;;;9.70;99.90;;;;;;4975944;28;20063;-73
2022/07/02 03:07:13;;;;;;;6.28;3.13;;;9.80;99.90;;;;;;4975824;28;20030;-72
2022/07/02 03:09:39;;;;;;;5.20;2.78;;;10.10;99.90;;;;;;4975784;28;20034;-73
2022/07/02 03:12:04;;;;;;;6.43;3.17;;;9.90;99.90;;;;;;4975524;28;20023;-73
2022/07/02 03:14:30;;;;;;;8.07;3.35;;;10.20;99.90;;;;;;4975744;28;20027;-73
2022/07/02 03:16:56;;;;;;;6.00;2.95;;;9.90;99.90;;;;;;4975809;28;20027;-73
2022/07/02 03:19:21;;;;;;;7.78;3.08;;;10.10;99.90;;;;;;4975484;28;20097;-73
2022/07/02 03:21:47;;;;;;;4.97;2.42;;;10.40;99.90;;;;;;4975620;28;20030;-72
2022/07/02 03:24:12;;;;;;;6.68;3.10;;;10.20;99.90;;;;;;4975558;28;20034;-74
2022/07/02 03:26:38;;;;;;;8.73;2.80;;;10.40;99.90;;;;;;4975460;28;20471;-73
2022/07/02 03:29:04;;;;;;;9.48;4.95;;;10.40;99.90;;;;;;4975460;28;20043;-73
2022/07/02 03:31:29;;;;;;;7.63;2.92;;;10.40;99.90;;;;;;4975458;28;20027;-73
2022/07/02 03:33:55;;;;;;;5.30;3.05;;;10.40;99.90;;;;;;4975536;28;20106;-73
2022/07/02 03:36:21;;;;;;;6.97;3.33;;;10.40;99.90;;;;;;4974589;28;20085;-73
2022/07/02 03:38:46;;;;;;;13.82;3.00;;;10.40;99.90;;;;;;4974996;28;20051;-74
2022/07/02 03:41:12;;;;;;;9.27;2.70;;;10.50;99.90;;;;;;4975230;28;20430;-73
2022/07/02 03:43:37;;;;;;;7.20;2.92;;;10.60;99.90;;;;;;4975069;28;20360;-73
2022/07/02 03:46:03;;;;;;;5.75;2.83;;;10.70;99.90;;;;;;4975133;28;20023;-73
2022/07/02 03:48:29;;;;;;;3.70;2.35;;;10.90;99.90;;;;;;4975114;28;20077;-73
2022/07/02 03:50:54;;;;;;;5.72;2.70;;;10.70;99.90;;;;;;4975065;28;20050;-73
2022/07/02 03:53:20;;;;;;;4.85;2.67;;;10.70;99.90;;;;;;4974949;28;20023;-73
2022/07/02 03:55:45;;;;;;;5.93;2.80;;;10.90;99.90;;;;;;4974930;28;20085;-73
2022/07/02 03:58:11;;;;;;;6.15;2.55;;;10.90;99.90;;;;;;4974956;28;20077;-73
2022/07/02 04:00:37;;;;;;;9.88;2.90;;;11.00;99.90;;;;;;4975018;28;20464;-73
2022/07/02 04:03:02;;;;;;;7.30;2.88;;;11.10;99.90;;;;;;4974814;28;20023;-73
2022/07/02 04:05:28;;;;;;;11.73;3.10;;;11.30;99.90;;;;;;4974855;28;20370;-73
2022/07/02 04:07:54;;;;;;;7.25;2.60;;;11.50;99.90;;;;;;4974775;28;20026;-73
2022/07/02 04:10:19;;;;;;;6.25;2.60;;;12.30;99.90;;;;;;4974678;28;20078;-73
2022/07/02 04:12:45;;;;;;;4.82;2.50;;;13.90;99.90;;;;;;4974680;28;20027;-73
2022/07/02 04:15:11;;;;;;;9.90;3.38;;;15.00;99.90;;;;;;4974704;28;20102;-73
2022/07/02 04:17:36;;;;;;;5.50;2.30;;;16.00;19.20;;;;;;4974514;28;20419;-73
2022/07/02 04:20:02;;;;;;;6.70;2.22;;;16.90;1.00;;;;;;4974479;28;20129;-73
2022/07/02 04:22:28;;;;;;;5.63;2.35;;;17.80;1.00;;;;;;4974498;28;20042;-73
2022/07/02 04:24:54;;;;;;;2.60;1.90;;;18.50;1.00;;;;;;4974558;28;20023;-73
2022/07/02 04:27:20;;;;;;;3.95;1.70;;;19.00;99.90;;;;;;4974337;28;20624;-73
2022/07/02 04:29:45;;;;;;;4.50;1.83;;;19.70;99.90;;;;;;4974460;28;20029;-73
2022/07/02 04:32:11;;;;;;;5.10;1.90;;;20.10;99.90;;;;;;4974330;28;20023;-73
2022/07/02 04:34:37;;;;;;;4.50;1.83;;;20.50;99.90;;;;;;4974287;28;20109;-73
2022/07/02 04:37:02;;;;;;;5.85;2.35;;;21.50;99.90;;;;;;4974282;28;20049;-73
2022/07/02 04:39:28;;;;;;;5.40;1.63;;;21.70;99.90;;;;;;4973847;28;20462;-73
2022/07/02 04:41:54;;;;;;;5.25;1.50;;;22.60;99.90;;;;;;4974182;28;20109;-74
2022/07/02 04:44:19;;;;;;;5.50;2.00;;;23.30;99.90;;;;;;4974006;28;20085;-74
2022/07/02 04:46:45;;;;;;;3.80;1.58;;;23.30;99.90;;;;;;4974072;28;20074;-74
2022/07/02 04:49:10;;;;;;;3.63;1.40;;;23.90;99.90;;;;;;4973269;28;20375;-74
2022/07/02 04:51:36;;;;;;;5.18;1.90;;;24.20;99.90;;;;;;4974027;28;20030;-74
2022/07/02 04:54:02;;;;;;;4.13;1.48;;;24.70;99.90;;;;;;4973842;28;20385;-74
2022/07/02 04:56:27;;;;;;;1.90;1.25;;;25.60;99.90;;;;;;4973828;28;20057;-74
2022/07/02 04:58:54;;;;;;;4.72;1.20;;;26.10;99.90;;;;;;4973779;28;20034;-74
2022/07/02 05:01:21;;;;;;;5.95;1.13;;;26.80;99.90;;;;;;4973929;28;20037;-74
2022/07/02 05:03:46;;;;;;;4.03;1.20;;;27.40;99.90;;;;;;4972865;28;20022;-74
2022/07/02 05:06:12;;;;;;;3.33;1.20;;;27.50;99.90;;;;;;4973699;28;20049;-74
2022/07/02 05:08:37;;;;;;;2.58;0.90;;;27.60;99.90;;;;;;4973574;28;20042;-74
2022/07/02 05:11:04;;;;;;;5.00;1.15;;;28.20;99.90;;;;;;4973640;28;20018;-74
2022/07/02 05:13:30;;;;;;;3.13;0.95;;;28.60;99.90;;;;;;4973685;28;20046;-73
2022/07/02 05:15:56;;;;;;;6.28;1.30;;;29.10;99.90;;;;;;4973791;28;20026;-74
2022/07/02 05:18:23;;;;;;;4.07;1.20;;;29.70;99.90;;;;;;4973580;28;20387;-74
2022/07/02 05:20:49;;;;;;;3.78;1.00;;;30.30;99.90;;;;;;4954470;28;20023;-73
2022/07/02 05:23:14;;;;;;;1.77;1.02;;;29.50;99.90;;;;;;4954262;28;20035;-74
2022/07/02 05:25:40;;;;;;;4.15;1.17;;;30.40;99.90;;;;;;4954387;28;20031;-73
2022/07/02 05:28:06;;;;;;;3.92;0.90;;;31.70;99.90;;;;;;4967257;28;20027;-74
2022/07/02 05:30:31;;;;;;;5.65;0.82;;;31.10;99.90;;;;;;4973255;28;20030;-74
2022/07/02 05:32:57;;;;;;;2.15;0.90;;;32.20;99.90;;;;;;4973550;28;20029;-73
2022/07/02 05:35:23;;;;;;;2.03;0.82;;;32.60;99.90;;;;;;4972899;28;20023;-73
2022/07/02 05:37:48;;;;;;;4.03;0.93;;;32.40;99.90;;;;;;4972944;28;20580;-73
2022/07/02 05:40:14;;;;;;;4.05;1.13;;;32.80;99.90;;;;;;4959632;28;20371;-74
2022/07/02 05:42:39;;;;;;;4.82;0.73;;;33.70;99.90;;;;;;4973419;28;20027;-74
2022/07/02 05:45:05;;;;;;;3.72;0.88;;;34.10;99.90;;;;;;4973406;28;20022;-74
2022/07/02 05:47:31;;;;;;;2.53;0.68;;;33.40;99.90;;;;;;4973222;28;20741;-74
2022/07/02 05:49:57;;;;;;;2.33;0.73;;;34.10;99.90;;;;;;4960649;28;20022;-74
2022/07/02 05:52:23;;;;;;;4.18;0.80;;;34.10;99.90;;;;;;4973297;28;20648;-74
2022/07/02 05:54:48;;;;;;;5.35;0.80;;;35.20;99.90;;;;;;4973111;28;20026;-74
2022/07/02 05:57:14;;;;;;;4.68;1.05;;;35.20;99.90;;;;;;4973321;28;20019;-74
2022/07/02 05:59:40;;;;;;;4.93;0.80;;;34.60;99.90;;;;;;4974044;28;20411;-74
2022/07/02 06:02:06;;;;;;;2.63;0.80;;;34.30;99.90;;;;;;4977115;28;20030;-74
2022/07/02 06:04:32;;;;;;;4.03;0.70;;;34.70;99.90;;;;;;4963923;28;20042;-74
2022/07/02 06:09:45;;;;;;;3.05;0.80;;;35.40;99.90;;;;;;4976855;28;20089;-74
2022/07/02 06:12:11;;;;;;;3.67;1.00;;;36.20;99.90;;;;;;4977119;28;20035;-72
2022/07/02 06:14:36;;;;;;;5.50;1.13;;;35.80;99.90;;;;;;4974695;28;20545;-71
2022/07/02 06:17:02;;;;;;;5.22;1.08;;;35.90;99.90;;;;;;4973099;28;20018;-74
2022/07/02 06:19:28;;;;;;;4.82;0.90;;;36.60;99.90;;;;;;4976577;28;20122;-74
2022/07/02 06:21:54;;;;;;;3.55;1.05;;;32.90;99.90;;;;;;4976571;28;20085;-74
2022/07/02 06:24:19;;;;;;;3.17;0.98;;;35.10;99.90;;;;;;4976155;28;20026;-74
2022/07/02 06:26:45;;;;;;;5.70;0.95;;;35.30;99.90;;;;;;4976533;28;20023;-74
2022/07/02 06:29:10;;;;;;;4.32;1.15;;;33.00;99.90;;;;;;4976363;28;20077;-74
2022/07/02 06:31:37;;;;;;;2.47;0.82;;;32.60;99.90;;;;;;4976123;28;20569;-75
2022/07/02 06:34:03;;;;;;;6.05;1.48;;;34.60;99.90;;;;;;4976455;28;20078;-72
2022/07/02 06:36:29;;;;;;;6.10;1.20;;;34.50;99.90;;;;;;4973484;28;20031;-72
2022/07/02 06:38:55;;;;;;;3.60;0.88;;;35.70;99.90;;;;;;4976256;28;20054;-73
2022/07/02 06:44:08;;;;;;;3.97;1.27;;;39.00;99.90;;;;;;4971750;28;20504;-73
2022/07/02 06:46:34;;;;;;;5.93;0.82;;;35.10;99.90;;;;;;4969034;28;20078;-73
2022/07/02 06:49:00;;;;;;;3.40;1.15;;;35.30;99.90;;;;;;4966667;28;20039;-73
2022/07/02 06:51:26;;;;;;;3.05;0.95;;;37.80;99.90;;;;;;4958846;28;20382;-73
2022/07/02 06:53:51;;;;;;;4.43;1.10;;;37.70;99.90;;;;;;4970669;28;20019;-73
2022/07/02 06:56:17;;;;;;;3.97;1.05;;;36.40;99.90;;;;;;4958288;28;20050;-73
2022/07/02 06:58:42;;;;;;;4.72;0.90;;;37.60;99.90;;;;;;4959022;28;20122;-73
2022/07/02 07:01:08;;;;;;;6.07;0.90;;;39.40;99.90;;;;;;4980219;28;20022;-73
2022/07/02 07:03:34;;;;;;;4.68;0.80;;;38.80;99.90;;;;;;4981872;28;20027;-73
2022/07/02 07:05:59;;;;;;;3.42;0.95;;;32.90;99.90;;;;;;4975903;28;20047;-73
2022/07/02 07:08:25;;;;;;;4.43;1.05;;;36.00;99.90;;;;;;4964024;28;20034;-73
2022/07/02 07:10:50;;;;;;;4.93;0.90;;;36.50;99.90;;;;;;4955904;28;20015;-73
2022/07/02 07:13:16;;;;;;;3.35;1.05;;;37.80;99.90;;;;;;4968101;28;20023;-73
2022/07/02 07:15:41;;;;;;;3.65;1.00;;;38.10;99.90;;;;;;4975504;28;20459;-73
2022/07/02 07:18:07;;;;;;;3.85;1.00;;;39.50;99.90;;;;;;4975640;28;20050;-73
2022/07/02 07:20:34;;;;;;;6.97;1.02;;;38.90;99.90;;;;;;4971040;28;20486;-73
2022/07/02 07:22:59;;;;;;;3.53;0.95;;;37.70;99.90;;;;;;4967767;28;20081;-73
2022/07/02 07:25:26;;;;;;;5.38;1.10;;;35.20;99.90;;;;;;4972440;28;20484;-73
2022/07/02 07:27:52;;;;;;;4.07;1.00;;;36.30;99.90;;;;;;4975948;28;20032;-73
2022/07/02 07:30:17;;;;;;;3.28;0.90;;;38.50;99.90;;;;;;4969818;28;20472;-73
2022/07/02 07:32:43;;;;;;;3.90;0.80;;;38.60;99.90;;;;;;4975265;28;20027;-73
2022/07/02 07:35:09;;;;;;;3.20;1.00;;;35.80;99.90;;;;;;4971830;28;20038;-73
2022/07/02 07:37:36;;;;;;;2.28;1.00;;;38.40;99.90;;;;;;4975317;28;20035;-73
2022/07/02 07:40:06;;;;;;;1.58;0.73;;;39.10;99.90;;;;;;4973665;28;20027;-73
2022/07/02 07:42:32;;;;;;;4.80;0.90;;;40.40;99.90;;;;;;4962097;28;20478;-73
2022/07/02 07:44:57;;;;;;;3.38;0.90;;;41.80;99.90;;;;;;4969440;28;20019;-73
2022/07/02 07:47:23;;;;;;;5.20;1.02;;;39.40;99.90;;;;;;4974984;28;20118;-73
2022/07/02 07:49:48;;;;;;;4.40;0.88;;;40.50;99.90;;;;;;4963364;28;20035;-73
2022/07/02 07:52:14;;;;;;;6.60;1.15;;;40.40;99.90;;;;;;4971125;28;20118;-73
2022/07/02 07:54:40;;;;;;;4.78;0.80;;;40.30;99.90;;;;;;4956094;28;20035;-73
2022/07/02 07:57:05;;;;;;;1.65;0.70;;;42.90;99.90;;;;;;4955731;28;20020;-73
2022/07/02 07:59:31;;;;;;;4.25;0.82;;;44.00;99.90;;;;;;4967189;28;20039;-73
2022/07/02 08:01:56;;;;;;;5.95;1.00;;;44.50;99.90;;;;;;4974673;28;20435;-73
2022/07/02 08:04:23;;;;;;;3.97;0.82;;;44.60;99.90;;;;;;4974598;28;20022;-73
2022/07/02 08:06:49;;;;;;;2.97;0.77;;;40.40;99.90;;;;;;4975114;28;20019;-73
2022/07/02 08:09:15;;;;;;;3.40;0.95;;;40.60;99.90;;;;;;4974160;28;20034;-73
2022/07/02 08:11:41;;;;;;;3.38;0.85;;;39.60;99.90;;;;;;4974972;28;20074;-74
2022/07/02 08:14:07;;;;;;;2.67;0.70;;;41.50;99.90;;;;;;4974647;28;20026;-73
2022/07/02 08:16:33;;;;;;;3.35;0.82;;;41.50;99.90;;;;;;4974569;28;20023;-73
2022/07/02 08:18:58;;;;;;;3.72;1.08;;;43.30;99.90;;;;;;4974503;28;20371;-73
2022/07/02 08:21:24;;;;;;;4.60;1.08;;;41.30;99.90;;;;;;4974302;28;20015;-73
2022/07/02 08:23:50;;;;;;;2.42;0.90;;;38.70;99.90;;;;;;4974347;28;20110;-73
2022/07/02 08:26:15;;;;;;;3.65;1.10;;;35.20;99.90;;;;;;4974380;28;20023;-73
2022/07/02 08:28:41;;;;;;;5.30;1.00;;;38.20;99.90;;;;;;4974402;28;20034;-73
2022/07/02 08:31:07;;;;;;;2.58;0.75;;;39.90;99.90;;;;;;4974290;28;20046;-73
2022/07/02 08:33:33;;;;;;;1.50;0.70;;;34.90;99.90;;;;;;4974280;28;20070;-73
2022/07/02 08:35:59;;;;;;;3.75;0.73;;;37.00;99.90;;;;;;4966193;28;20035;-74
2022/07/02 08:38:25;;;;;;;6.40;0.90;;;33.70;99.90;;;;;;4969183;28;20125;-73
2022/07/02 08:40:52;;;;;;;2.58;0.82;;;37.60;99.90;;;;;;4974394;28;20129;-74
2022/07/02 08:43:21;;;;;;;5.20;1.00;;;39.90;99.90;;;;;;4974086;28;20098;-73
2022/07/02 08:45:48;;;;;;;3.08;0.82;;;38.40;99.90;;;;;;4974135;28;20039;-73
2022/07/02 08:48:13;;;;;;;3.85;0.95;;;36.40;99.90;;;;;;4974019;28;20055;-73
2022/07/02 08:50:40;;;;;;;2.65;0.70;;;38.00;99.90;;;;;;4974069;28;20537;-73
2022/07/02 08:53:06;;;;;;;2.22;0.77;;;41.10;99.90;;;;;;4974051;28;20023;-73
2022/07/02 08:55:34;;;;;;;2.35;0.70;;;40.20;99.90;;;;;;4973945;28;20062;-74
2022/07/02 08:58:00;;;;;;;2.47;0.77;;;41.90;99.90;;;;;;4965120;28;20023;-73
2022/07/02 09:00:26;;;;;;;2.28;0.70;;;38.20;99.90;;;;;;4972376;28;20442;-73
2022/07/02 09:02:53;;;;;;;3.70;0.80;;;39.30;99.90;;;;;;4973612;28;20117;-73
2022/07/02 09:05:21;;;;;;;2.25;0.88;;;41.50;99.90;;;;;;4973800;28;20027;-73
2022/07/02 09:07:47;;;;;;;2.80;0.82;;;43.00;99.90;;;;;;4973717;28;20386;-73
2022/07/02 09:10:17;;;;;;;3.55;0.65;;;44.00;99.90;;;;;;4968312;28;20377;-74
2022/07/02 09:12:43;;;;;;;2.97;0.77;;;42.60;99.90;;;;;;4973591;28;20374;-73
2022/07/02 09:15:10;;;;;;;2.65;0.75;;;43.20;99.90;;;;;;4973610;28;20038;-73
2022/07/02 09:17:36;;;;;;;3.40;0.70;;;43.90;99.90;;;;;;4973391;28;20023;-73
2022/07/02 09:20:03;;;;;;;3.03;0.93;;;42.70;99.90;;;;;;4973458;28;20102;-73
2022/07/02 09:22:34;;;;;;;3.85;1.05;;;40.50;99.90;;;;;;4968265;28;20031;-74
2022/07/02 09:25:15;;;;;;;2.55;1.02;;;38.90;99.90;;;;;;4954846;28;20023;-73
2022/07/02 09:27:42;;;;;;;3.33;0.65;;;39.90;99.90;;;;;;4973485;28;20089;-75
2022/07/02 09:30:10;;;;;;;3.25;0.90;;;41.30;99.90;;;;;;4973826;28;20054;-75
2022/07/02 09:32:44;;;;;;;6.15;0.73;;;39.80;99.90;;;;;;4973396;28;20039;-75
2022/07/02 09:35:22;;;;;;;3.75;0.88;;;41.00;99.90;;;;;;4976208;28;20360;-72
2022/07/02 09:37:49;;;;;;;4.60;0.60;;;42.30;99.90;;;;;;4978760;28;20483;-72
2022/07/02 09:40:16;;;;;;;1.63;0.50;;;39.50;99.90;;;;;;4982850;28;20466;-72
2022/07/02 09:42:46;;;;;;;2.97;0.55;;;42.00;99.90;;;;;;4986067;28;20043;-73
2022/07/02 09:45:13;;;;;;;2.10;0.63;;;41.90;99.90;;;;;;4978946;28;20651;-74
2022/07/02 09:47:44;;;;;;;2.90;0.63;;;40.10;99.90;;;;;;4979095;28;20049;-74
2022/07/02 09:50:11;;;;;;;1.05;0.52;;;41.90;99.90;;;;;;4972632;28;20054;-73
2022/07/02 09:52:50;;;;;;;2.97;0.60;;;41.60;99.90;;;;;;4968526;28;20046;-73
2022/07/02 09:55:20;;;;;;;1.88;0.73;;;36.90;99.90;;;;;;4987031;28;20043;-73
2022/07/02 09:57:53;;;;;;;2.50;0.63;;;37.50;99.90;;;;;;4979533;28;20458;-75
2022/07/02 10:00:20;;;;;;;1.90;0.70;;;39.30;99.90;;;;;;4979334;28;20035;-72
2022/07/02 10:02:53;;;;;;;2.30;0.55;;;35.90;99.90;;;;;;4986179;28;20026;-73
2022/07/02 10:05:27;;;;;;;1.38;0.40;;;35.30;99.90;;;;;;4979579;28;20018;-71
2022/07/02 10:07:54;;;;;;;2.97;0.70;;;34.00;99.90;;;;;;4979478;28;20026;-72
2022/07/02 10:10:30;;;;;;;2.20;0.70;;;33.30;99.90;;;;;;4972285;28;20031;-72
2022/07/02 10:12:57;;;;;;;2.70;0.70;;;32.60;99.90;;;;;;4983619;28;20026;-72
2022/07/02 10:15:24;;;;;;;2.05;0.70;;;32.20;99.90;;;;;;4974460;28;20111;-72
2022/07/02 10:17:55;;;;;;;1.73;0.70;;;31.60;99.90;;;;;;4976907;28;20023;-72
2022/07/02 10:20:23;;;;;;;2.85;0.63;;;30.60;99.90;;;;;;4976019;28;20019;-71
2022/07/02 10:22:49;;;;;;;1.40;0.70;;;29.80;99.90;;;;;;4980103;28;20026;-72
2022/07/02 10:25:19;;;;;;;2.53;0.73;;;29.10;99.90;;;;;;4979424;28;20467;-72
2022/07/02 10:27:46;;;;;;;1.67;0.73;;;28.90;99.90;;;;;;4974163;28;20026;-71
2022/07/02 10:30:13;;;;;;;4.78;1.00;;;28.60;99.90;;;;;;4981427;28;20077;-72
2022/07/02 10:32:49;;;;;;;4.10;0.95;;;33.90;99.90;;;;;;4977457;28;20023;-71
2022/07/02 10:35:16;;;;;;;3.80;0.80;;;35.50;99.90;;;;;;4978786;28;20190;-72
2022/07/02 10:37:43;;;;;;;4.95;0.82;;;37.20;99.90;;;;;;4967903;28;20043;-71
2022/07/02 10:40:10;;;;;;;2.38;1.00;;;35.40;99.90;;;;;;4977461;28;20475;-71
2022/07/02 10:42:41;;;;;;;2.00;0.90;;;34.40;99.90;;;;;;4979204;28;20031;-72
2022/07/02 10:45:15;;;;;;;3.63;0.88;;;36.40;99.90;;;;;;4978753;28;20668;-71
2022/07/02 10:47:57;;;;;;;2.17;1.00;;;35.70;99.90;;;;;;4962076;28;20029;-72
2022/07/02 10:50:35;;;;;;;3.45;0.85;;;36.10;99.90;;;;;;4971768;28;20031;-72
2022/07/02 10:53:20;;;;;;;4.50;0.85;;;37.60;99.90;;;;;;4987803;28;20110;-73
2022/07/02 10:55:51;;;;;;;4.80;0.82;;;39.40;99.90;;;;;;4983228;28;20030;-72
2022/07/02 10:58:24;;;;;;;1.58;0.75;;;35.90;99.90;;;;;;4983495;28;20094;-72
2022/07/02 11:00:50;;;;;;;2.58;0.70;;;37.20;99.90;;;;;;4975810;28;20043;-72
2022/07/02 11:03:26;;;;;;;2.10;0.93;;;34.10;99.90;;;;;;4980475;28;20477;-72
2022/07/02 11:05:55;;;;;;;2.95;0.80;;;35.70;99.90;;;;;;4976571;28;20031;-72
2022/07/02 11:08:51;;;;;;;1.00;0.53;;;37.30;99.90;;;;;;4975515;28;20109;-73
2022/07/02 11:11:35;;;;;;;2.25;0.90;;;34.30;99.90;;;;;;4967250;28;20268;-72
2022/07/02 11:14:08;;;;;;;2.70;0.90;;;33.80;99.90;;;;;;4963118;28;20353;-72
2022/07/02 11:16:38;;;;;;;2.58;0.60;;;31.20;99.90;;;;;;4975767;28;20386;-73
2022/07/02 11:19:05;;;;;;;2.17;0.88;;;30.40;99.90;;;;;;4975499;28;20027;-73
2022/07/02 11:21:31;;;;;;;3.25;1.00;;;29.70;99.90;;;;;;4975409;28;20581;-73
2022/07/02 11:23:57;;;;;;;4.18;1.02;;;29.60;99.90;;;;;;4958174;28;20028;-73
2022/07/02 11:26:25;;;;;;;1.65;0.70;;;29.70;99.90;;;;;;4957616;28;20415;-74
2022/07/02 11:28:52;;;;;;;2.67;0.60;;;30.50;99.90;;;;;;4975754;28;20418;-74
2022/07/02 11:31:19;;;;;;;2.35;0.65;;;30.20;99.90;;;;;;4975263;28;20027;-74
2022/07/02 11:33:55;;;;;;;2.45;0.70;;;29.80;99.90;;;;;;4975355;28;20047;-74
2022/07/02 11:36:21;;;;;;;2.67;0.70;;;30.20;99.90;;;;;;4975165;28;20101;-74
2022/07/02 11:38:49;;;;;;;4.70;0.68;;;30.50;99.90;;;;;;4974812;28;20051;-73
2022/07/02 11:41:22;;;;;;;3.35;0.82;;;31.00;99.90;;;;;;4975209;28;20090;-73
2022/07/02 11:43:52;;;;;;;2.58;0.70;;;31.00;99.90;;;;;;4972759;28;20023;-75
2022/07/02 11:46:22;;;;;;;4.20;0.90;;;30.40;99.90;;;;;;4955801;28;20083;-73
2022/07/02 11:48:49;;;;;;;4.07;0.90;;;30.20;99.90;;;;;;4959667;28;20019;-74
2022/07/02 11:51:16;;;;;;;1.98;0.85;;;29.60;99.90;;;;;;4974680;28;20103;-74
2022/07/02 11:53:42;;;;;;;3.08;0.77;;;29.70;99.90;;;;;;4972077;28;20018;-74
2022/07/02 11:56:11;;;;;;;1.98;0.80;;;28.40;99.90;;;;;;4974890;28;20023;-74
2022/07/02 11:58:45;;;;;;;2.25;0.63;;;28.60;99.90;;;;;;4976278;28;20030;-74
2022/07/02 12:01:23;;;;;;;2.13;0.68;;;29.10;99.90;;;;;;4969004;28;20387;-74
2022/07/02 12:03:49;;;;;;;1.92;0.73;;;29.80;99.90;;;;;;4971923;28;20586;-74
2022/07/02 12:06:15;;;;;;;2.05;0.85;;;29.50;99.90;;;;;;4960422;28;20046;-74
2022/07/02 12:08:42;;;;;;;1.92;0.68;;;29.40;99.90;;;;;;4976978;28;20038;-73
2022/07/02 12:11:19;;;;;;;2.38;0.73;;;29.30;99.90;;;;;;4989965;28;20025;-74
2022/07/02 12:13:45;;;;;;;1.75;0.70;;;29.80;99.90;;;;;;4993568;28;20021;-74
2022/07/02 12:16:16;;;;;;;1.65;0.68;;;29.90;99.90;;;;;;4974448;28;20046;-74
2022/07/02 12:18:42;;;;;;;2.47;0.82;;;29.70;99.90;;;;;;4974596;28;20085;-75
2022/07/02 12:21:19;;;;;;;2.83;0.68;;;29.70;99.90;;;;;;4974380;28;20023;-74
2022/07/02 12:23:48;;;;;;;1.42;0.57;;;29.70;99.90;;;;;;4974641;28;20050;-74
2022/07/02 12:26:25;;;;;;;0.90;0.60;;;29.80;99.90;;;;;;4974341;28;20039;-73
2022/07/02 12:31:48;;;;;;;2.92;0.85;;;28.40;99.90;;;;;;4974036;28;20370;-73
2022/07/02 12:34:15;;;;;;;1.25;0.60;;;28.50;99.90;;;;;;4974321;28;20031;-73
2022/07/02 12:36:50;;;;;;;2.47;0.55;;;27.80;99.90;;;;;;4958217;28;20060;-73
2022/07/02 12:39:16;;;;;;;1.35;0.60;;;28.00;99.90;;;;;;4965785;28;20054;-73
2022/07/02 12:41:42;;;;;;;2.67;0.60;;;29.10;99.90;;;;;;4974013;28;20023;-73
2022/07/02 12:44:15;;;;;;;2.67;0.70;;;29.20;99.90;;;;;;4974141;28;20173;-73
2022/07/02 12:46:50;;;;;;;1.60;0.52;;;28.70;99.90;;;;;;4973988;28;20098;-73
2022/07/02 12:49:19;;;;;;;17.90;2.30;;;28.40;99.90;;;;;;4954868;28;20031;-74
2022/07/02 12:52:14;;;;;;;1.27;0.50;;;28.60;99.90;;;;;;4956339;28;20344;-74
2022/07/02 12:54:40;;;;;;;1.88;0.80;;;27.70;99.90;;;;;;4969201;28;20035;-74
2022/07/02 12:57:20;;;;;;;1.55;0.60;;;27.80;99.90;;;;;;4973910;28;20480;-74
2022/07/02 12:59:47;;;;;;;0.73;0.47;;;27.40;99.90;;;;;;4973837;28;20391;-74